createdAt,value
2022-11-29T00:01:09.769Z,10.30
2022-11-29T00:03:37.406Z,8.88
2022-11-29T00:06:05.866Z,9.25
2022-11-29T00:08:32.532Z,8.38
2022-11-29T00:11:07.124Z,9.68
2022-11-29T00:13:34.397Z,10.15
2022-11-29T00:16:12.155Z,10.90
2022-11-29T00:18:38.835Z,10.98
2022-11-29T00:21:07.800Z,10.02
2022-11-29T00:23:35.536Z,9.48
2022-11-29T00:26:06.997Z,10.40
2022-11-29T00:28:35.140Z,9.65
2022-11-29T00:31:12.085Z,9.63
2022-11-29T00:33:38.670Z,9.77
2022-11-29T00:36:05.492Z,10.10
2022-11-29T00:38:32.069Z,10.02
2022-11-29T00:40:58.716Z,9.55
2022-11-29T00:43:25.469Z,10.90
2022-11-29T00:45:52.134Z,9.05
2022-11-29T00:48:19.176Z,9.82
2022-11-29T00:50:45.765Z,9.75
2022-11-29T00:53:12.420Z,8.52
2022-11-29T00:55:39.009Z,9.38
2022-11-29T00:58:06.290Z,9.27
2022-11-29T01:00:32.917Z,8.98
2022-11-29T01:02:59.479Z,10.75
2022-11-29T01:05:26.117Z,9.32
2022-11-29T01:07:52.726Z,8.48
2022-11-29T01:10:19.572Z,7.70
2022-11-29T01:12:46.203Z,8.50
2022-11-29T01:15:13.077Z,7.32
2022-11-29T01:17:40.360Z,7.35
2022-11-29T01:20:08.876Z,7.63
2022-11-29T01:22:35.975Z,7.88
2022-11-29T01:25:02.708Z,7.28
2022-11-29T01:27:29.773Z,7.47
2022-11-29T01:29:56.445Z,5.85
2022-11-29T01:32:23.277Z,7.25
2022-11-29T01:34:50.224Z,5.88
2022-11-29T01:37:16.845Z,6.95
2022-11-29T01:39:43.652Z,7.03
2022-11-29T01:42:12.277Z,6.80
2022-11-29T01:44:38.862Z,6.03
2022-11-29T01:47:05.763Z,5.70
2022-11-29T01:49:44.022Z,5.80
2022-11-29T01:52:16.712Z,5.68
2022-11-29T01:54:48.130Z,5.35
2022-11-29T01:57:15.317Z,4.35
2022-11-29T01:59:49.392Z,6.30
2022-11-29T02:02:22.132Z,5.50
2022-11-29T02:04:49.799Z,4.55
2022-11-29T02:07:16.600Z,4.93
2022-11-29T02:09:43.742Z,5.25
2022-11-29T02:12:46.801Z,5.97
2022-11-29T02:15:33.666Z,5.05
2022-11-29T02:18:08.333Z,4.35
2022-11-29T02:20:47.411Z,5.13
2022-11-29T02:23:39.382Z,4.55
2022-11-29T02:26:11.943Z,4.97
2022-11-29T02:31:42.272Z,4.45
2022-11-29T02:34:40.860Z,4.03
2022-11-29T02:37:16.248Z,4.65
2022-11-29T02:40:07.186Z,4.22
2022-11-29T02:43:00.848Z,4.32
2022-11-29T02:45:35.437Z,4.38
2022-11-29T02:48:39.706Z,3.78
2022-11-29T02:51:25.749Z,4.63
2022-11-29T02:54:23.762Z,3.70
2022-11-29T02:57:09.036Z,4.07
2022-11-29T02:59:59.559Z,4.07
2022-11-29T03:02:52.880Z,3.45
2022-11-29T03:05:40.626Z,3.75
2022-11-29T03:08:36.232Z,4.32
2022-11-29T03:11:28.959Z,4.40
2022-11-29T03:14:17.123Z,4.00
2022-11-29T03:16:52.793Z,4.00
2022-11-29T03:19:34.268Z,4.25
2022-11-29T03:22:09.852Z,3.75
2022-11-29T03:24:59.025Z,3.90
2022-11-29T03:27:37.928Z,4.20
2022-11-29T03:32:43.152Z,3.92
2022-11-29T03:35:12.586Z,3.72
2022-11-29T03:38:15.824Z,3.85
2022-11-29T03:41:06.060Z,3.53
2022-11-29T03:44:11.187Z,3.75
2022-11-29T03:47:06.961Z,3.65
2022-11-29T03:49:59.640Z,3.90
2022-11-29T03:52:53.608Z,4.78
2022-11-29T03:55:29.106Z,4.72
2022-11-29T03:58:05.769Z,4.32
2022-11-29T04:00:49.111Z,3.58
2022-11-29T04:03:40.448Z,3.97
2022-11-29T04:06:55.205Z,4.25
2022-11-29T04:09:21.768Z,3.63
2022-11-29T04:12:17.910Z,4.07
2022-11-29T04:15:02.651Z,4.45
2022-11-29T04:17:38.461Z,4.47
2022-11-29T04:20:18.199Z,4.65
2022-11-29T04:23:09.912Z,4.10
2022-11-29T04:25:49.110Z,3.83
2022-11-29T04:28:47.894Z,4.30
2022-11-29T04:31:32.671Z,3.72
2022-11-29T04:34:18.359Z,4.07
2022-11-29T04:37:07.456Z,4.20
2022-11-29T04:39:54.040Z,4.45
2022-11-29T04:42:32.528Z,4.25
2022-11-29T04:45:42.291Z,3.97
2022-11-29T04:48:20.783Z,4.22
2022-11-29T04:51:03.226Z,4.93
2022-11-29T04:53:35.948Z,3.97
2022-11-29T04:56:23.308Z,3.88
2022-11-29T04:59:01.995Z,3.90
2022-11-29T05:01:57.549Z,4.05
2022-11-29T05:04:30.377Z,4.20
2022-11-29T05:07:09.863Z,5.15
2022-11-29T05:09:55.867Z,4.05
2022-11-29T05:12:47.936Z,4.55
2022-11-29T05:15:36.180Z,4.18
2022-11-29T05:18:26.539Z,4.55
2022-11-29T05:21:16.233Z,4.50
2022-11-29T05:23:55.088Z,4.75
2022-11-29T05:29:34.019Z,4.75
2022-11-29T05:32:30.656Z,4.45
2022-11-29T05:35:23.523Z,4.72
2022-11-29T05:37:55.089Z,5.10
2022-11-29T05:40:44.907Z,4.38
2022-11-29T05:43:38.067Z,5.00
2022-11-29T05:46:22.703Z,5.47
2022-11-29T05:48:58.127Z,5.35
2022-11-29T05:51:34.122Z,5.18
2022-11-29T05:54:12.158Z,5.25
2022-11-29T05:57:08.964Z,5.40
2022-11-29T05:59:38.601Z,4.97
2022-11-29T06:02:26.249Z,4.97
2022-11-29T06:05:24.001Z,5.50
2022-11-29T06:08:06.138Z,5.00
2022-11-29T06:10:37.534Z,5.35
2022-11-29T06:13:26.467Z,5.05
2022-11-29T06:16:30.236Z,5.45
2022-11-29T06:18:56.968Z,5.70
2022-11-29T06:21:37.291Z,5.05
2022-11-29T06:24:39.869Z,5.05
2022-11-29T06:27:37.117Z,6.18
2022-11-29T06:30:12.047Z,5.80
2022-11-29T06:33:01.235Z,5.22
2022-11-29T06:35:39.115Z,6.30
2022-11-29T06:38:28.017Z,5.32
2022-11-29T06:41:00.232Z,5.72
2022-11-29T06:43:29.188Z,4.18
2022-11-29T06:46:09.889Z,5.53
2022-11-29T06:48:49.335Z,5.18
2022-11-29T06:51:30.992Z,5.70
2022-11-29T06:54:20.810Z,4.72
2022-11-29T06:57:26.057Z,5.28
2022-11-29T07:00:18.183Z,5.53
2022-11-29T07:02:57.370Z,5.15
2022-11-29T07:05:29.951Z,5.55
2022-11-29T07:10:26.682Z,4.95
2022-11-29T07:12:53.648Z,5.32
2022-11-29T07:15:22.456Z,5.93
2022-11-29T07:17:55.028Z,5.90
2022-11-29T07:23:09.284Z,6.93
2022-11-29T07:25:57.452Z,5.93
2022-11-29T07:28:43.857Z,5.65
2022-11-29T07:31:47.971Z,5.25
2022-11-29T07:34:46.301Z,5.63
2022-11-29T07:37:31.043Z,6.22
2022-11-29T07:40:13.371Z,6.13
2022-11-29T07:42:48.953Z,5.32
2022-11-29T07:45:31.760Z,5.65
2022-11-29T07:47:59.319Z,5.30
2022-11-29T07:50:26.933Z,4.95
2022-11-29T07:52:55.019Z,5.75
2022-11-29T07:55:24.130Z,5.88
2022-11-29T07:57:51.247Z,5.65
2022-11-29T08:00:19.412Z,5.32
2022-11-29T08:02:47.144Z,6.80
2022-11-29T08:05:13.767Z,6.82
2022-11-29T08:07:41.574Z,6.20
2022-11-29T08:10:12.176Z,5.15
2022-11-29T08:12:47.375Z,6.03
2022-11-29T08:15:14.536Z,6.05
2022-11-29T08:17:41.264Z,6.07
2022-11-29T08:20:10.160Z,5.28
2022-11-29T08:22:36.913Z,6.38
2022-11-29T08:25:05.006Z,8.40
2022-11-29T08:27:32.128Z,7.20
2022-11-29T08:29:59.079Z,7.10
2022-11-29T08:32:27.002Z,6.72
2022-11-29T08:34:53.584Z,7.13
2022-11-29T08:37:20.329Z,7.10
2022-11-29T08:39:46.974Z,5.95
2022-11-29T08:42:13.604Z,6.88
2022-11-29T08:44:40.626Z,6.70
2022-11-29T08:47:25.727Z,6.72
2022-11-29T08:50:01.590Z,7.50
2022-11-29T08:52:54.945Z,6.53
2022-11-29T08:55:23.969Z,6.07
2022-11-29T08:57:51.926Z,7.20
2022-11-29T09:00:19.332Z,7.75
2022-11-29T09:02:46.129Z,7.55
2022-11-29T09:05:13.260Z,7.18
2022-11-29T09:07:40.001Z,7.82
2022-11-29T09:10:09.538Z,8.38
2022-11-29T09:12:37.117Z,8.45
2022-11-29T09:15:06.567Z,9.63
2022-11-29T09:17:33.651Z,8.57
2022-11-29T09:20:00.395Z,9.13
2022-11-29T09:22:27.001Z,10.30
2022-11-29T09:24:53.710Z,10.70
2022-11-29T09:27:20.387Z,10.55
2022-11-29T09:29:47.239Z,10.05
2022-11-29T09:32:13.915Z,10.00
2022-11-29T09:34:42.197Z,9.70
2022-11-29T09:37:09.040Z,8.93
2022-11-29T09:39:35.699Z,9.65
2022-11-29T09:42:14.049Z,10.23
2022-11-29T09:45:05.326Z,10.30
2022-11-29T09:47:37.776Z,10.82
2022-11-29T09:50:43.926Z,8.88
2022-11-29T09:53:34.584Z,7.75
2022-11-29T09:56:26.813Z,7.82
2022-11-29T09:59:00.094Z,8.10
2022-11-29T10:01:31.262Z,8.18
2022-11-29T10:04:02.971Z,7.47
2022-11-29T10:06:40.810Z,8.05
2022-11-29T10:09:33.522Z,10.32
2022-11-29T10:12:17.334Z,8.77
2022-11-29T10:14:55.524Z,9.25
2022-11-29T10:17:30.203Z,10.75
2022-11-29T10:20:17.808Z,8.85
2022-11-29T10:22:54.426Z,9.07
2022-11-29T10:25:33.634Z,10.00
2022-11-29T10:28:00.525Z,8.57
2022-11-29T10:30:27.251Z,9.32
2022-11-29T10:33:00.222Z,8.48
2022-11-29T10:35:27.186Z,11.00
2022-11-29T10:38:29.186Z,10.10
2022-11-29T10:43:14.074Z,9.00
2022-11-29T10:45:50.024Z,9.18
2022-11-29T10:48:19.014Z,9.38
2022-11-29T10:50:48.694Z,10.30
2022-11-29T10:53:18.082Z,10.07
2022-11-29T10:56:08.657Z,10.30
2022-11-29T10:58:57.061Z,10.48
2022-11-29T11:01:26.004Z,10.02
2022-11-29T11:03:57.566Z,9.60
2022-11-29T11:06:52.170Z,9.27
2022-11-29T11:09:42.344Z,9.32
2022-11-29T11:12:20.427Z,9.15
2022-11-29T11:14:47.434Z,8.55
2022-11-29T11:17:14.289Z,10.32
2022-11-29T11:19:41.055Z,11.15
2022-11-29T11:22:19.531Z,11.02
2022-11-29T11:24:46.470Z,9.40
2022-11-29T11:27:13.298Z,8.60
2022-11-29T11:29:42.326Z,9.30
2022-11-29T11:32:17.106Z,9.05
2022-11-29T11:34:57.276Z,10.50
2022-11-29T11:37:29.484Z,9.98
2022-11-29T11:39:59.141Z,10.60
2022-11-29T11:42:37.798Z,8.70
2022-11-29T11:45:10.537Z,10.10
2022-11-29T11:47:44.330Z,10.23
2022-11-29T11:50:17.689Z,9.30
2022-11-29T11:52:53.160Z,10.68
2022-11-29T11:55:37.141Z,8.52
2022-11-29T11:58:13.041Z,10.55
2022-11-29T12:01:07.864Z,8.35
2022-11-29T12:04:02.205Z,9.15
2022-11-29T12:06:36.073Z,9.88
2022-11-29T12:09:11.308Z,8.82
2022-11-29T12:11:41.870Z,8.93
2022-11-29T12:14:18.262Z,9.02
2022-11-29T12:16:47.294Z,9.82
2022-11-29T12:19:23.277Z,8.35
2022-11-29T12:21:56.062Z,8.77
2022-11-29T12:24:38.396Z,10.07
2022-11-29T12:27:05.900Z,10.10
2022-11-29T12:29:34.901Z,8.73
2022-11-29T12:32:13.077Z,9.45
2022-11-29T12:34:58.489Z,10.35
2022-11-29T12:37:43.028Z,9.23
2022-11-29T12:40:27.832Z,10.13
2022-11-29T12:43:05.554Z,10.82
2022-11-29T12:45:32.338Z,10.35
2022-11-29T12:48:28.754Z,12.00
2022-11-29T12:51:07.548Z,9.90
2022-11-29T12:53:45.821Z,8.88
2022-11-29T12:56:18.607Z,10.55
2022-11-29T12:59:20.796Z,10.60
2022-11-29T13:02:22.394Z,9.60
2022-11-29T13:04:59.545Z,9.38
2022-11-29T13:07:44.105Z,9.60
2022-11-29T13:10:18.197Z,12.25
2022-11-29T13:13:12.964Z,10.77
2022-11-29T13:15:49.912Z,16.05
2022-11-29T13:18:22.206Z,17.10
2022-11-29T13:20:56.582Z,16.48
2022-11-29T13:24:11.918Z,17.17
2022-11-29T13:26:43.165Z,12.80
2022-11-29T13:29:19.076Z,11.73
2022-11-29T13:31:47.580Z,10.55
2022-11-29T13:34:34.972Z,12.05
2022-11-29T13:37:33.765Z,11.10
2022-11-29T13:40:17.454Z,10.63
2022-11-29T13:42:46.734Z,11.73
2022-11-29T13:45:24.953Z,10.73
2022-11-29T13:47:54.628Z,10.48
2022-11-29T13:50:39.202Z,10.00
2022-11-29T13:53:16.581Z,10.15
2022-11-29T13:55:49.988Z,10.55
2022-11-29T13:58:28.779Z,10.82
2022-11-29T14:01:00.216Z,11.25
2022-11-29T14:03:39.519Z,9.40
2022-11-29T14:06:21.104Z,8.75
2022-11-29T14:09:19.118Z,8.73
2022-11-29T14:11:43.036Z,9.55
2022-11-29T14:14:22.506Z,9.15
2022-11-29T14:16:59.514Z,8.52
2022-11-29T14:19:33.151Z,7.85
2022-11-29T14:22:05.381Z,9.05
2022-11-29T14:24:35.582Z,9.60
2022-11-29T14:27:13.997Z,8.85
2022-11-29T14:29:49.968Z,8.40
2022-11-29T14:32:56.346Z,8.30
2022-11-29T14:35:25.922Z,8.85
2022-11-29T14:38:15.343Z,8.52
2022-11-29T14:40:41.917Z,8.43
2022-11-29T14:43:26.530Z,8.65
2022-11-29T14:46:15.100Z,7.45
2022-11-29T14:48:57.118Z,9.88
2022-11-29T14:51:26.150Z,7.82
2022-11-29T14:54:14.817Z,9.73
2022-11-29T14:56:43.675Z,8.85
2022-11-29T14:59:45.577Z,8.85
2022-11-29T15:02:32.313Z,9.25
2022-11-29T15:05:13.117Z,8.10
2022-11-29T15:07:45.580Z,9.25
2022-11-29T15:12:46.723Z,8.05
2022-11-29T15:15:41.361Z,8.82
2022-11-29T15:18:40.509Z,8.68
2022-11-29T15:21:31.413Z,8.48
2022-11-29T15:24:02.838Z,6.90
2022-11-29T15:26:29.753Z,7.80
2022-11-29T15:29:18.049Z,8.30
2022-11-29T15:31:48.804Z,7.75
2022-11-29T15:34:31.983Z,8.25
2022-11-29T15:37:00.104Z,9.18
2022-11-29T15:39:36.645Z,7.88
2022-11-29T15:42:26.178Z,8.20
2022-11-29T15:44:55.091Z,7.78
2022-11-29T15:47:26.309Z,8.77
2022-11-29T15:49:54.323Z,7.97
2022-11-29T15:52:41.311Z,6.80
2022-11-29T15:55:12.471Z,9.40
2022-11-29T15:57:43.112Z,9.35
2022-11-29T16:00:20.026Z,10.63
2022-11-29T16:02:59.179Z,11.13
2022-11-29T16:05:34.930Z,12.00
2022-11-29T16:08:05.601Z,12.13
2022-11-29T16:10:40.206Z,14.77
2022-11-29T16:13:34.357Z,12.27
2022-11-29T16:16:12.266Z,11.40
2022-11-29T16:18:40.987Z,10.27
2022-11-29T16:21:21.381Z,10.15
2022-11-29T16:23:47.995Z,9.43
2022-11-29T16:26:24.081Z,9.07
2022-11-29T16:28:53.207Z,9.60
2022-11-29T16:31:22.636Z,9.50
2022-11-29T16:33:52.277Z,9.07
2022-11-29T16:36:25.259Z,9.85
2022-11-29T16:39:05.767Z,8.57
2022-11-29T16:41:32.423Z,8.95
2022-11-29T16:44:03.537Z,8.05
2022-11-29T16:46:35.975Z,7.32
2022-11-29T16:49:34.129Z,7.30
2022-11-29T16:52:03.882Z,7.85
2022-11-29T16:54:34.021Z,9.90
2022-11-29T16:57:05.147Z,7.18
2022-11-29T16:59:32.472Z,7.85
2022-11-29T17:01:59.213Z,8.98
2022-11-29T17:04:26.175Z,8.98
2022-11-29T17:06:56.765Z,9.50
2022-11-29T17:09:29.475Z,9.38
2022-11-29T17:11:59.569Z,10.40
2022-11-29T17:14:26.424Z,8.65
2022-11-29T17:16:53.160Z,8.10
2022-11-29T17:19:24.026Z,7.95
2022-11-29T17:21:51.777Z,8.90
2022-11-29T17:24:21.123Z,7.97
2022-11-29T17:26:47.807Z,8.15
2022-11-29T17:29:16.131Z,8.20
2022-11-29T17:31:45.003Z,8.82
2022-11-29T17:34:11.974Z,9.18
2022-11-29T17:36:38.895Z,7.95
2022-11-29T17:39:06.277Z,8.95
2022-11-29T17:41:33.614Z,8.02
2022-11-29T17:44:00.759Z,7.85
2022-11-29T17:46:37.030Z,8.30
2022-11-29T17:49:06.733Z,9.00
2022-11-29T17:54:22.189Z,9.13
2022-11-29T17:56:49.348Z,8.23
2022-11-29T17:59:16.079Z,9.13
2022-11-29T18:01:42.758Z,9.85
2022-11-29T18:04:09.493Z,8.32
2022-11-29T18:06:38.334Z,10.38
2022-11-29T18:09:06.781Z,9.32
2022-11-29T18:11:47.403Z,10.90
2022-11-29T18:14:21.097Z,11.43
2022-11-29T18:16:47.855Z,10.23
2022-11-29T18:19:17.511Z,10.52
2022-11-29T18:21:44.554Z,10.80
2022-11-29T18:24:11.262Z,11.00
2022-11-29T18:26:39.195Z,11.23
2022-11-29T18:29:06.928Z,10.77
2022-11-29T18:31:35.492Z,10.85
2022-11-29T18:34:06.893Z,11.73
2022-11-29T18:36:39.542Z,14.10
2022-11-29T18:41:37.966Z,12.65
2022-11-29T18:44:10.744Z,12.63
2022-11-29T18:46:38.893Z,11.93
2022-11-29T18:49:08.378Z,14.68
2022-11-29T18:51:36.447Z,11.82
2022-11-29T18:54:04.079Z,13.85
2022-11-29T18:56:32.796Z,13.77
2022-11-29T18:59:01.272Z,12.52
2022-11-29T19:01:30.712Z,12.93
2022-11-29T19:03:59.226Z,12.38
2022-11-29T19:06:32.809Z,13.45
2022-11-29T19:09:05.206Z,11.75
2022-11-29T19:11:33.750Z,12.10
2022-11-29T19:14:03.773Z,10.82
2022-11-29T19:16:33.811Z,10.77
2022-11-29T19:19:01.279Z,10.80
2022-11-29T19:21:31.637Z,10.50
2022-11-29T19:24:03.839Z,10.68
2022-11-29T19:26:31.870Z,9.65
2022-11-29T19:29:00.263Z,14.95
2022-11-29T19:31:28.507Z,13.13
2022-11-29T19:33:55.851Z,12.43
2022-11-29T19:36:25.263Z,11.38
2022-11-29T19:38:54.109Z,10.80
2022-11-29T19:41:27.606Z,9.88
2022-11-29T19:43:56.859Z,11.20
2022-11-29T19:46:26.415Z,10.75
2022-11-29T19:48:57.778Z,9.25
2022-11-29T19:51:25.662Z,9.73
2022-11-29T19:53:54.404Z,8.85
2022-11-29T19:56:21.577Z,9.25
2022-11-29T19:58:48.573Z,8.60
2022-11-29T20:01:15.272Z,11.07
2022-11-29T20:03:42.761Z,11.55
2022-11-29T20:06:09.889Z,10.13
2022-11-29T20:08:37.147Z,10.52
2022-11-29T20:11:12.867Z,11.20
2022-11-29T20:13:42.076Z,10.85
2022-11-29T20:16:10.947Z,10.20
2022-11-29T20:18:39.893Z,12.30
2022-11-29T20:21:10.633Z,13.25
2022-11-29T20:23:38.360Z,13.45
2022-11-29T20:26:08.594Z,12.80
2022-11-29T20:28:35.810Z,11.65
2022-11-29T20:31:11.872Z,12.45
2022-11-29T20:33:39.821Z,12.23
2022-11-29T20:36:25.296Z,14.10
2022-11-29T20:38:58.170Z,14.57
2022-11-29T20:41:35.406Z,11.85
2022-11-29T20:44:02.884Z,11.45
2022-11-29T20:46:30.126Z,11.43
2022-11-29T20:49:01.657Z,11.40
2022-11-29T20:51:47.108Z,10.80
2022-11-29T20:54:15.011Z,10.27
2022-11-29T20:56:41.659Z,10.68
2022-11-29T20:59:08.249Z,10.23
2022-11-29T21:01:34.918Z,12.27
2022-11-29T21:04:01.741Z,11.75
2022-11-29T21:06:28.411Z,10.38
2022-11-29T21:08:55.074Z,10.38
2022-11-29T21:11:22.139Z,10.45
2022-11-29T21:13:48.967Z,12.35
2022-11-29T21:16:15.741Z,10.90
2022-11-29T21:18:42.664Z,13.05
2022-11-29T21:21:17.812Z,11.32
2022-11-29T21:23:55.132Z,11.98
2022-11-29T21:26:28.866Z,10.80
2022-11-29T21:29:17.572Z,9.68
2022-11-29T21:31:45.482Z,10.30
2022-11-29T21:34:12.211Z,10.50
2022-11-29T21:36:39.654Z,11.38
2022-11-29T21:39:07.885Z,11.85
2022-11-29T21:41:34.559Z,11.07
2022-11-29T21:44:08.862Z,10.43
2022-11-29T21:46:35.991Z,9.82
2022-11-29T21:49:02.756Z,10.30
2022-11-29T21:51:29.340Z,12.02
2022-11-29T21:53:55.956Z,11.18
2022-11-29T21:56:22.704Z,10.75
2022-11-29T21:58:49.349Z,12.15
2022-11-29T22:01:18.820Z,10.73
2022-11-29T22:03:45.570Z,11.25
2022-11-29T22:06:14.505Z,10.85
2022-11-29T22:08:42.059Z,11.18
2022-11-29T22:11:14.500Z,8.48
2022-11-29T22:14:01.656Z,9.75
2022-11-29T22:16:29.549Z,9.88
2022-11-29T22:18:56.221Z,9.55
2022-11-29T22:21:22.835Z,10.40
2022-11-29T22:23:49.773Z,9.07
2022-11-29T22:26:16.374Z,10.05
2022-11-29T22:28:42.992Z,9.32
2022-11-29T22:31:12.151Z,9.13
2022-11-29T22:33:39.770Z,7.97
2022-11-29T22:36:08.852Z,9.05
2022-11-29T22:38:36.109Z,9.25
2022-11-29T22:41:07.404Z,9.90
2022-11-29T22:43:34.438Z,11.27
2022-11-29T22:46:14.479Z,8.68
2022-11-29T22:48:43.717Z,10.70
2022-11-29T22:51:16.380Z,9.35
2022-11-29T22:53:48.683Z,8.82
2022-11-29T22:56:15.366Z,9.23
2022-11-29T22:58:42.068Z,10.43
2022-11-29T23:01:20.307Z,8.45
2022-11-29T23:03:53.151Z,8.63
2022-11-29T23:06:43.382Z,8.50
2022-11-29T23:09:21.580Z,8.55
2022-11-29T23:11:55.719Z,9.88
2022-11-29T23:14:23.304Z,8.77
2022-11-29T23:16:50.245Z,8.38
2022-11-29T23:19:17.430Z,9.05
2022-11-29T23:21:45.752Z,9.20
2022-11-29T23:24:13.883Z,9.70
2022-11-29T23:26:43.626Z,8.23
2022-11-29T23:29:13.165Z,10.18
2022-11-29T23:31:39.952Z,10.18
2022-11-29T23:34:06.680Z,8.70
2022-11-29T23:36:33.486Z,8.90
2022-11-29T23:39:00.770Z,9.23
2022-11-29T23:41:27.421Z,10.85
2022-11-29T23:43:54.034Z,9.00
2022-11-29T23:46:22.820Z,10.60
2022-11-29T23:48:49.720Z,11.02
2022-11-29T23:51:17.623Z,10.07
2022-11-29T23:53:44.959Z,8.45
2022-11-29T23:56:16.303Z,8.93
2022-11-29T23:58:43.997Z,9.65
